Bazine, Kansas
Current Conditions -  °F | °C
As of 5:55 AM on Sunday 25 Jan 2015 (Local Time) from KHYS Reporting Station
Clear Clear  
Wind Chill: 29°   Ceiling: Unl
Heat Index: 39°   Visibility: 10mi
Dew Point: 25°   Wind: 21mph
Humidity: 56%   Direction: 310°NW
Pressure: 29.96"   Gusts: 25mph
Location:  38.44°N, 99.69°W
Report Text: KHYS 251155Z AUTO 31018G22KT 10SM CLR 04/M04 A2996 RMK AO1 10100 20040 52010
Loading
Personal Weather Stations






























Interactive Weather Map New forecast layout! Learn more

10-Day Weather Forecast

Advertisements
Track Severe Weather on mobile